createdAt,value
2023-05-23T00:00:18.860Z,11.57
2023-05-23T00:02:47.489Z,7.57
2023-05-23T00:05:18.299Z,10.18
2023-05-23T00:07:46.538Z,7.53
2023-05-23T00:10:16.040Z,10.90
2023-05-23T00:12:45.304Z,8.43
2023-05-23T00:15:13.654Z,6.50
2023-05-23T00:17:41.771Z,6.50
2023-05-23T00:20:12.141Z,5.65
2023-05-23T00:22:44.010Z,8.55
2023-05-23T00:25:13.317Z,7.95
2023-05-23T00:27:46.186Z,8.10
2023-05-23T00:30:14.564Z,7.47
2023-05-23T00:32:47.180Z,8.50
2023-05-23T00:35:15.527Z,7.15
2023-05-23T00:37:45.599Z,6.93
2023-05-23T00:40:15.368Z,6.70
2023-05-23T00:42:50.748Z,7.00
2023-05-23T00:45:19.086Z,6.28
2023-05-23T00:47:48.482Z,8.63
2023-05-23T00:50:17.212Z,10.90
2023-05-23T00:52:46.834Z,9.10
2023-05-23T00:55:17.412Z,8.98
2023-05-23T00:57:47.227Z,9.48
2023-05-23T01:00:16.348Z,8.48
2023-05-23T01:02:47.379Z,7.88
2023-05-23T01:05:22.969Z,10.43
2023-05-23T01:07:53.956Z,7.13
2023-05-23T01:10:24.032Z,7.32
2023-05-23T01:12:59.639Z,8.27
2023-05-23T01:15:33.668Z,6.75
2023-05-23T01:18:08.644Z,10.80
2023-05-23T01:20:41.634Z,8.52
2023-05-23T01:23:30.754Z,5.43
2023-05-23T01:26:15.362Z,7.97
2023-05-23T01:28:49.185Z,10.07
2023-05-23T01:31:19.319Z,10.65
2023-05-23T01:33:47.714Z,10.00
2023-05-23T01:36:16.919Z,9.35
2023-05-23T01:38:45.390Z,9.35
2023-05-23T01:41:13.487Z,10.75
2023-05-23T01:43:43.703Z,6.95
2023-05-23T01:46:13.613Z,6.53
2023-05-23T01:48:42.346Z,9.70
2023-05-23T01:51:10.821Z,9.35
2023-05-23T01:53:39.846Z,7.50
2023-05-23T01:56:10.693Z,5.90
2023-05-23T01:58:41.050Z,6.93
2023-05-23T02:01:10.030Z,7.38
2023-05-23T02:03:39.575Z,8.93
2023-05-23T02:06:11.253Z,8.98
2023-05-23T02:08:40.278Z,11.05
2023-05-23T02:11:10.819Z,12.23
2023-05-23T02:13:39.175Z,7.07
2023-05-23T02:16:07.985Z,9.38
2023-05-23T02:18:38.845Z,8.48
2023-05-23T02:21:16.113Z,8.10
2023-05-23T02:23:45.081Z,8.32
2023-05-23T02:26:14.621Z,9.13
2023-05-23T02:28:43.018Z,14.07
2023-05-23T02:31:11.309Z,7.55
2023-05-23T02:33:41.685Z,9.25
2023-05-23T02:36:11.515Z,6.75
2023-05-23T02:38:39.864Z,9.63
2023-05-23T02:41:07.900Z,9.70
2023-05-23T02:43:35.970Z,6.25
2023-05-23T02:46:04.573Z,11.95
2023-05-23T02:48:33.296Z,6.15
2023-05-23T02:51:01.798Z,8.93
2023-05-23T02:53:32.000Z,8.88
2023-05-23T02:56:00.271Z,9.23
2023-05-23T02:58:31.584Z,6.93
2023-05-23T03:01:02.146Z,9.00
2023-05-23T03:03:32.236Z,8.32
2023-05-23T03:06:00.848Z,7.88
2023-05-23T03:08:31.560Z,12.55
2023-05-23T03:11:02.810Z,9.85
2023-05-23T03:13:32.421Z,8.02
2023-05-23T03:16:02.099Z,14.15
2023-05-23T03:18:31.721Z,11.23
2023-05-23T03:21:00.197Z,7.85
2023-05-23T03:23:28.544Z,9.38
2023-05-23T03:26:00.655Z,10.02
2023-05-23T03:28:32.061Z,9.25
2023-05-23T03:31:00.605Z,10.18
2023-05-23T03:33:28.747Z,10.98
2023-05-23T03:35:57.774Z,8.77
2023-05-23T03:38:27.117Z,12.25
2023-05-23T03:40:55.518Z,10.27
2023-05-23T03:43:24.774Z,8.85
2023-05-23T03:45:57.775Z,8.52
2023-05-23T03:48:25.985Z,9.40
2023-05-23T03:50:56.348Z,9.00
2023-05-23T03:53:24.679Z,8.77
2023-05-23T03:55:54.338Z,12.05
2023-05-23T03:58:22.512Z,7.57
2023-05-23T04:00:50.977Z,9.75
2023-05-23T04:03:24.071Z,11.50
2023-05-23T04:05:52.648Z,7.78
2023-05-23T04:08:22.612Z,8.52
2023-05-23T04:10:52.508Z,8.88
2023-05-23T04:13:22.655Z,16.55
2023-05-23T04:15:52.252Z,8.90
2023-05-23T04:18:22.226Z,7.38
2023-05-23T04:20:50.596Z,13.98
2023-05-23T04:23:18.696Z,13.27
2023-05-23T04:25:48.396Z,10.40
2023-05-23T04:28:17.724Z,16.13
2023-05-23T04:30:51.608Z,8.50
2023-05-23T04:33:21.713Z,10.43
2023-05-23T04:35:54.864Z,8.10
2023-05-23T04:38:25.134Z,9.38
2023-05-23T04:40:54.099Z,8.77
2023-05-23T04:43:22.517Z,14.60
2023-05-23T04:46:02.286Z,9.27
2023-05-23T04:48:35.423Z,8.82
2023-05-23T04:51:07.895Z,9.43
2023-05-23T04:53:37.033Z,7.80
2023-05-23T04:56:05.684Z,10.75
2023-05-23T04:58:34.052Z,8.70
2023-05-23T05:01:04.360Z,8.40
2023-05-23T05:03:33.745Z,11.05
2023-05-23T05:06:01.968Z,7.05
2023-05-23T05:08:29.974Z,10.27
2023-05-23T05:10:58.320Z,10.02
2023-05-23T05:13:26.564Z,8.05
2023-05-23T05:15:54.879Z,8.65
2023-05-23T05:18:24.218Z,15.13
2023-05-23T05:20:53.730Z,16.48
2023-05-23T05:23:21.702Z,10.07
2023-05-23T05:25:50.675Z,9.68
2023-05-23T05:28:18.861Z,9.55
2023-05-23T05:30:48.442Z,17.00
2023-05-23T05:33:19.043Z,11.27
2023-05-23T05:35:47.020Z,14.98
2023-05-23T05:38:16.465Z,8.10
2023-05-23T05:40:44.485Z,11.35
2023-05-23T05:43:12.884Z,9.98
2023-05-23T05:45:41.244Z,10.00
2023-05-23T05:48:09.862Z,10.57
2023-05-23T05:50:37.912Z,10.00
2023-05-23T05:53:08.279Z,8.90
2023-05-23T05:55:38.101Z,9.32
2023-05-23T05:58:06.557Z,10.43
2023-05-23T06:00:42.294Z,12.98
2023-05-23T06:03:10.996Z,14.20
2023-05-23T06:05:40.203Z,11.73
2023-05-23T06:08:08.975Z,12.60
2023-05-23T06:10:41.791Z,11.32
2023-05-23T06:13:10.675Z,10.82
2023-05-23T06:15:39.207Z,8.85
2023-05-23T06:18:09.369Z,14.68
2023-05-23T06:20:37.611Z,14.07
2023-05-23T06:23:06.476Z,17.75
2023-05-23T06:25:34.557Z,15.60
2023-05-23T06:28:04.537Z,7.95
2023-05-23T06:30:35.438Z,17.17
2023-05-23T06:33:03.976Z,16.88
2023-05-23T06:35:34.474Z,8.38
2023-05-23T06:38:03.625Z,6.57
2023-05-23T06:40:31.922Z,9.18
2023-05-23T06:43:00.746Z,11.02
2023-05-23T06:45:30.635Z,7.65
2023-05-23T06:48:01.279Z,9.70
2023-05-23T06:50:30.044Z,8.48
2023-05-23T06:52:59.133Z,11.48
2023-05-23T06:55:28.645Z,11.55
2023-05-23T06:57:57.128Z,12.90
2023-05-23T07:00:25.504Z,12.73
2023-05-23T07:02:56.901Z,8.52
2023-05-23T07:05:26.092Z,13.27
2023-05-23T07:07:55.002Z,16.38
2023-05-23T07:10:23.783Z,7.55
2023-05-23T07:12:52.403Z,10.93
2023-05-23T07:15:22.710Z,11.32
2023-05-23T07:17:51.248Z,12.80
2023-05-23T07:20:22.194Z,12.60
2023-05-23T07:22:52.007Z,15.57
2023-05-23T07:25:20.765Z,20.20
2023-05-23T07:27:50.359Z,11.70
2023-05-23T07:30:20.411Z,12.50
2023-05-23T07:32:52.728Z,8.15
2023-05-23T07:35:26.121Z,10.85
2023-05-23T07:37:54.663Z,9.15
2023-05-23T07:40:25.981Z,10.05
2023-05-23T07:42:54.285Z,7.35
2023-05-23T07:45:22.727Z,8.93
2023-05-23T07:47:51.589Z,9.60
2023-05-23T07:50:20.120Z,9.75
2023-05-23T07:52:51.892Z,9.38
2023-05-23T07:55:21.408Z,7.93
2023-05-23T07:57:49.642Z,8.35
2023-05-23T08:00:19.173Z,8.52
2023-05-23T08:02:47.498Z,12.00
2023-05-23T08:05:18.507Z,8.93
2023-05-23T08:07:46.920Z,11.48
2023-05-23T08:10:19.310Z,8.30
2023-05-23T08:12:48.092Z,8.93
2023-05-23T08:15:17.384Z,8.80
2023-05-23T08:17:46.334Z,9.63
2023-05-23T08:20:18.267Z,9.43
2023-05-23T08:22:47.520Z,10.52
2023-05-23T08:25:20.660Z,9.43
2023-05-23T08:30:19.286Z,17.15
2023-05-23T08:32:47.445Z,9.32
2023-05-23T08:35:16.178Z,10.90
2023-05-23T08:37:50.229Z,9.75
2023-05-23T08:40:23.112Z,11.70
2023-05-23T08:42:52.429Z,12.82
2023-05-23T08:45:31.266Z,11.50
2023-05-23T08:48:03.884Z,11.50
2023-05-23T08:50:36.982Z,11.95
2023-05-23T08:53:09.613Z,10.30
2023-05-23T08:55:53.525Z,11.68
2023-05-23T08:58:40.657Z,12.70
2023-05-23T09:01:23.228Z,13.13
2023-05-23T09:03:52.875Z,12.35
2023-05-23T09:06:22.893Z,11.48
2023-05-23T09:08:52.937Z,12.77
2023-05-23T09:11:25.956Z,13.73
2023-05-23T09:13:58.874Z,13.90
2023-05-23T09:16:35.851Z,16.10
2023-05-23T09:19:11.997Z,12.40
2023-05-23T09:21:46.827Z,11.88
2023-05-23T09:24:16.004Z,15.00
2023-05-23T09:26:48.646Z,12.50
2023-05-23T09:29:25.959Z,11.80
2023-05-23T09:31:54.120Z,14.48
2023-05-23T09:34:22.619Z,14.15
2023-05-23T09:36:51.223Z,16.10
2023-05-23T09:39:20.984Z,15.68
2023-05-23T09:41:51.985Z,13.27
2023-05-23T09:44:24.579Z,17.90
2023-05-23T09:46:53.949Z,18.45
2023-05-23T09:49:23.927Z,22.27
2023-05-23T09:51:59.323Z,18.63
2023-05-23T09:54:28.226Z,23.27
2023-05-23T09:57:01.978Z,22.55
2023-05-23T09:59:32.964Z,24.67
2023-05-23T10:02:04.610Z,28.15
2023-05-23T10:04:34.520Z,24.63
2023-05-23T10:07:08.719Z,25.95
2023-05-23T10:09:40.172Z,24.67
2023-05-23T10:12:47.994Z,29.42
2023-05-23T10:15:18.596Z,22.95
2023-05-23T10:17:54.981Z,25.48
2023-05-23T10:20:27.219Z,29.67
2023-05-23T10:25:25.128Z,28.23
2023-05-23T10:28:03.238Z,33.85
2023-05-23T10:30:37.358Z,27.27
2023-05-23T10:33:16.523Z,26.88
2023-05-23T10:35:51.491Z,26.02
2023-05-23T10:38:29.994Z,24.00
2023-05-23T10:41:03.890Z,28.65
2023-05-23T10:43:37.065Z,25.75
2023-05-23T10:46:11.272Z,22.90
2023-05-23T10:48:43.102Z,25.38
2023-05-23T10:51:14.374Z,21.52
2023-05-23T10:53:44.662Z,21.70
2023-05-23T10:56:22.754Z,24.85
2023-05-23T10:58:55.541Z,23.63
2023-05-23T11:01:25.738Z,20.88
2023-05-23T11:03:56.149Z,19.15
2023-05-23T11:06:33.234Z,22.20
2023-05-23T11:09:09.092Z,21.10
2023-05-23T11:11:57.988Z,18.25
2023-05-23T11:14:52.489Z,21.95
2023-05-23T11:17:36.159Z,25.35
2023-05-23T11:20:07.198Z,20.83
2023-05-23T11:22:39.924Z,17.70
2023-05-23T11:25:10.080Z,20.05
2023-05-23T11:27:41.617Z,21.55
2023-05-23T11:30:13.638Z,15.80
2023-05-23T11:32:51.581Z,17.80
2023-05-23T11:35:19.989Z,18.65
2023-05-23T11:37:48.817Z,17.75
2023-05-23T11:40:27.847Z,15.88
2023-05-23T11:42:59.448Z,17.75
2023-05-23T11:45:29.250Z,17.77
2023-05-23T11:48:02.166Z,17.48
2023-05-23T11:50:30.263Z,16.92
2023-05-23T11:52:58.741Z,18.85
2023-05-23T11:55:27.185Z,18.75
2023-05-23T11:57:57.477Z,16.67
2023-05-23T12:00:25.805Z,16.88
2023-05-23T12:02:53.978Z,19.48
2023-05-23T12:05:23.682Z,21.42
2023-05-23T12:07:51.994Z,20.48
2023-05-23T12:10:22.506Z,18.15
2023-05-23T12:12:53.989Z,19.20
2023-05-23T12:15:26.800Z,21.23
2023-05-23T12:17:55.982Z,19.75
2023-05-23T12:20:28.093Z,23.27
2023-05-23T12:22:59.770Z,16.75
2023-05-23T12:25:28.030Z,18.02
2023-05-23T12:27:57.230Z,17.48
2023-05-23T12:30:25.415Z,19.00
2023-05-23T12:32:53.791Z,18.02
2023-05-23T12:35:21.978Z,17.63
2023-05-23T12:37:55.128Z,20.27
2023-05-23T12:40:24.264Z,17.50
2023-05-23T12:42:54.827Z,19.42
2023-05-23T12:45:24.418Z,19.23
2023-05-23T12:47:54.531Z,20.15
2023-05-23T12:50:23.333Z,23.20
2023-05-23T12:52:53.539Z,34.38
2023-05-23T12:55:21.721Z,26.10
2023-05-23T12:57:51.549Z,24.83
2023-05-23T13:00:21.355Z,25.35
2023-05-23T13:02:50.651Z,26.88
2023-05-23T13:05:19.145Z,25.80
2023-05-23T13:07:47.740Z,26.50
2023-05-23T13:10:17.906Z,28.75
2023-05-23T13:12:46.328Z,28.35
2023-05-23T13:15:14.738Z,31.60
2023-05-23T13:17:47.982Z,32.28
2023-05-23T13:20:18.387Z,33.30
2023-05-23T13:22:46.440Z,34.83
2023-05-23T13:25:15.597Z,34.28
2023-05-23T13:27:46.849Z,35.10
2023-05-23T13:30:17.154Z,39.35
2023-05-23T13:32:45.469Z,42.45
2023-05-23T13:35:14.300Z,40.58
2023-05-23T13:37:42.639Z,38.40
2023-05-23T13:40:14.491Z,40.28
2023-05-23T13:42:42.698Z,43.78
2023-05-23T13:45:13.345Z,45.13
2023-05-23T13:47:43.771Z,44.38
2023-05-23T13:50:13.082Z,39.95
2023-05-23T13:52:44.783Z,46.95
2023-05-23T13:55:17.480Z,38.30
2023-05-23T13:57:45.585Z,41.22
2023-05-23T14:00:19.716Z,45.83
2023-05-23T14:02:52.103Z,37.42
2023-05-23T14:05:20.471Z,35.97
2023-05-23T14:07:49.037Z,31.10
2023-05-23T14:10:27.043Z,29.88
2023-05-23T14:12:56.092Z,26.58
2023-05-23T14:15:26.278Z,29.80
2023-05-23T14:17:58.914Z,26.50
2023-05-23T14:20:28.280Z,29.02
2023-05-23T14:22:58.586Z,28.73
2023-05-23T14:25:26.747Z,26.10
2023-05-23T14:27:55.497Z,33.00
2023-05-23T14:30:46.373Z,35.63
2023-05-23T14:33:17.762Z,27.65
2023-05-23T14:35:45.848Z,22.23
2023-05-23T14:38:14.483Z,20.75
2023-05-23T14:40:49.315Z,23.33
2023-05-23T14:43:18.247Z,21.63
2023-05-23T14:45:48.063Z,21.17
2023-05-23T14:48:17.794Z,17.75
2023-05-23T14:50:46.748Z,19.13
2023-05-23T14:53:15.515Z,18.80
2023-05-23T14:55:44.920Z,19.17
2023-05-23T14:58:13.744Z,19.58
2023-05-23T15:00:47.053Z,17.38
2023-05-23T15:03:26.780Z,21.02
2023-05-23T15:05:55.289Z,21.02
2023-05-23T15:08:23.611Z,17.23
2023-05-23T15:10:53.290Z,17.13
2023-05-23T15:13:22.353Z,16.55
2023-05-23T15:15:50.503Z,14.63
2023-05-23T15:18:31.679Z,14.75
2023-05-23T15:21:14.352Z,16.85
2023-05-23T15:23:44.521Z,14.25
2023-05-23T15:26:15.616Z,13.57
2023-05-23T15:28:48.086Z,11.82
2023-05-23T15:31:16.440Z,16.63
2023-05-23T15:33:45.479Z,11.95
2023-05-23T15:36:14.884Z,12.82
2023-05-23T15:38:49.494Z,12.18
2023-05-23T15:41:21.173Z,15.18
2023-05-23T15:43:50.085Z,10.90
2023-05-23T15:46:18.397Z,15.43
2023-05-23T15:48:46.521Z,90.25
2023-05-23T15:51:17.696Z,72.18
2023-05-23T15:54:00.153Z,16.65
2023-05-23T15:56:30.023Z,17.27
2023-05-23T15:58:58.414Z,10.85
2023-05-23T16:01:27.087Z,9.55
2023-05-23T16:03:56.058Z,10.70
2023-05-23T16:06:28.087Z,10.15
2023-05-23T16:08:57.190Z,12.63
2023-05-23T16:11:25.298Z,12.52
2023-05-23T16:13:59.935Z,11.77
2023-05-23T16:16:28.299Z,7.95
2023-05-23T16:18:56.653Z,8.00
2023-05-23T16:21:27.254Z,9.23
2023-05-23T16:23:59.084Z,7.13
2023-05-23T16:26:28.885Z,5.55
2023-05-23T16:28:57.007Z,5.65
2023-05-23T16:31:27.788Z,6.05
2023-05-23T16:33:56.745Z,3.72
2023-05-23T16:36:26.869Z,4.95
2023-05-23T16:38:59.975Z,5.05
2023-05-23T16:41:28.199Z,4.75
2023-05-23T16:43:56.984Z,5.18
2023-05-23T16:46:26.360Z,10.95
2023-05-23T16:48:55.944Z,5.78
2023-05-23T16:51:26.159Z,7.00
2023-05-23T16:53:54.680Z,8.98
2023-05-23T16:56:23.462Z,4.35
2023-05-23T16:58:53.257Z,5.00
2023-05-23T17:01:21.902Z,5.45
2023-05-23T17:03:50.338Z,7.85
2023-05-23T17:06:19.059Z,4.60
2023-05-23T17:08:48.726Z,4.05
2023-05-23T17:11:16.900Z,4.00
2023-05-23T17:13:45.430Z,6.35
2023-05-23T17:16:17.979Z,4.82
2023-05-23T17:18:48.887Z,5.57
2023-05-23T17:21:20.040Z,4.35
2023-05-23T17:23:50.097Z,4.78
2023-05-23T17:26:19.988Z,6.22
2023-05-23T17:28:49.663Z,5.68
2023-05-23T17:31:18.343Z,5.60
2023-05-23T17:33:48.351Z,8.45
2023-05-23T17:36:16.439Z,8.75
2023-05-23T17:38:45.512Z,8.43
2023-05-23T17:41:15.988Z,9.23
2023-05-23T17:43:44.121Z,9.07
2023-05-23T17:46:12.294Z,9.15
2023-05-23T17:48:47.664Z,8.32
2023-05-23T17:51:17.108Z,12.20
2023-05-23T17:53:45.681Z,15.07
2023-05-23T17:56:16.893Z,9.73
2023-05-23T17:58:44.999Z,16.30
2023-05-23T18:01:14.746Z,12.10
2023-05-23T18:03:44.936Z,11.93
2023-05-23T18:06:15.858Z,17.42
2023-05-23T18:08:44.326Z,11.15
2023-05-23T18:11:14.231Z,12.25
2023-05-23T18:13:44.321Z,12.18
2023-05-23T18:16:12.629Z,14.68
2023-05-23T18:18:41.035Z,12.10
2023-05-23T18:21:09.710Z,14.70
2023-05-23T18:23:38.023Z,13.32
2023-05-23T18:26:08.346Z,15.27
2023-05-23T18:28:36.804Z,14.68
2023-05-23T18:31:07.180Z,15.45
2023-05-23T18:33:35.994Z,18.65
2023-05-23T18:36:07.112Z,19.55
2023-05-23T18:38:36.101Z,17.50
2023-05-23T18:41:05.079Z,18.88
2023-05-23T18:43:33.942Z,18.70
2023-05-23T18:46:02.719Z,18.88
2023-05-23T18:48:35.782Z,14.70
2023-05-23T18:51:07.041Z,21.67
2023-05-23T18:53:35.942Z,19.00
2023-05-23T18:56:04.372Z,13.00
2023-05-23T18:58:32.764Z,14.98
2023-05-23T19:01:03.700Z,19.10
2023-05-23T19:03:34.932Z,19.95
2023-05-23T19:06:03.679Z,19.52
2023-05-23T19:08:33.652Z,16.58
2023-05-23T19:11:03.675Z,13.85
2023-05-23T19:13:31.803Z,20.25
2023-05-23T19:15:59.985Z,22.98
2023-05-23T19:18:28.668Z,22.88
2023-05-23T19:20:58.167Z,25.88
2023-05-23T19:23:28.059Z,29.58
2023-05-23T19:25:56.182Z,20.20
2023-05-23T19:28:24.352Z,19.95
2023-05-23T19:30:54.574Z,19.70
2023-05-23T19:33:23.153Z,27.45
2023-05-23T19:35:52.445Z,15.30
2023-05-23T19:38:27.789Z,19.73
2023-05-23T19:40:56.177Z,23.73
2023-05-23T19:43:24.659Z,25.33
2023-05-23T19:45:53.815Z,21.75
2023-05-23T19:48:22.038Z,27.48
2023-05-23T19:50:51.948Z,18.23
2023-05-23T19:53:20.116Z,22.60
2023-05-23T19:55:51.550Z,15.77
2023-05-23T19:58:20.165Z,16.77
2023-05-23T20:00:48.511Z,15.75
2023-05-23T20:03:17.133Z,19.80
2023-05-23T20:05:47.397Z,15.60
2023-05-23T20:08:17.228Z,19.63
2023-05-23T20:10:46.406Z,17.17
2023-05-23T20:13:16.325Z,23.77
2023-05-23T20:15:44.538Z,25.48
2023-05-23T20:18:14.501Z,18.92
2023-05-23T20:20:42.843Z,19.98
2023-05-23T20:23:11.180Z,20.23
2023-05-23T20:25:39.952Z,18.92
2023-05-23T20:28:10.748Z,18.38
2023-05-23T20:30:40.501Z,15.75
2023-05-23T20:33:09.394Z,16.92
2023-05-23T20:35:42.225Z,18.40
2023-05-23T20:38:11.452Z,17.77
2023-05-23T20:40:40.134Z,13.90
2023-05-23T20:43:10.463Z,18.48
2023-05-23T20:45:40.292Z,22.20
2023-05-23T20:48:22.117Z,19.45
2023-05-23T20:50:50.804Z,23.38
2023-05-23T20:53:19.697Z,22.23
2023-05-23T20:55:50.691Z,15.75
2023-05-23T20:58:20.249Z,20.58
2023-05-23T21:00:54.514Z,20.65
2023-05-23T21:03:23.181Z,15.02
2023-05-23T21:05:51.700Z,20.50
2023-05-23T21:08:21.098Z,20.40
2023-05-23T21:10:52.399Z,23.83
2023-05-23T21:13:22.561Z,27.35
2023-05-23T21:15:53.828Z,22.65
2023-05-23T21:18:22.438Z,23.77
2023-05-23T21:20:53.122Z,24.95
2023-05-23T21:23:23.474Z,19.80
2023-05-23T21:25:51.619Z,16.23
2023-05-23T21:28:20.820Z,22.65
2023-05-23T21:30:49.775Z,14.63
2023-05-23T21:33:19.362Z,25.02
2023-05-23T21:35:47.937Z,20.00
2023-05-23T21:38:18.890Z,18.77
2023-05-23T21:40:46.961Z,18.20
2023-05-23T21:43:14.957Z,16.20
2023-05-23T21:45:43.337Z,12.00
2023-05-23T21:48:11.320Z,16.35
2023-05-23T21:50:43.658Z,23.52
2023-05-23T21:53:11.891Z,19.80
2023-05-23T21:55:40.205Z,22.60
2023-05-23T21:58:08.541Z,15.55
2023-05-23T22:00:39.403Z,26.02
2023-05-23T22:03:11.633Z,12.63
2023-05-23T22:08:09.424Z,23.63
2023-05-23T22:10:38.281Z,14.48
2023-05-23T22:13:14.825Z,22.02
2023-05-23T22:15:47.533Z,18.30
2023-05-23T22:18:19.574Z,19.88
2023-05-23T22:20:49.887Z,15.10
2023-05-23T22:23:18.678Z,18.33
2023-05-23T22:25:48.417Z,17.38
2023-05-23T22:28:26.559Z,15.30
2023-05-23T22:30:56.756Z,19.13
2023-05-23T22:33:26.570Z,15.50
2023-05-23T22:35:57.011Z,26.55
2023-05-23T22:38:25.090Z,18.45
2023-05-23T22:40:54.423Z,19.23
2023-05-23T22:43:22.816Z,15.25
2023-05-23T22:45:52.628Z,24.23
2023-05-23T22:48:21.959Z,27.52
2023-05-23T22:50:54.118Z,22.98
2023-05-23T22:53:23.664Z,23.13
2023-05-23T22:55:51.811Z,24.83
2023-05-23T22:58:20.893Z,28.90
2023-05-23T23:00:49.765Z,24.50
2023-05-23T23:03:18.326Z,21.40
2023-05-23T23:05:48.118Z,20.88
2023-05-23T23:08:17.844Z,26.70
2023-05-23T23:10:47.817Z,18.52
2023-05-23T23:13:16.120Z,26.98
2023-05-23T23:15:45.228Z,16.75
2023-05-23T23:18:13.772Z,16.15
2023-05-23T23:20:42.645Z,27.58
2023-05-23T23:23:12.019Z,29.65
2023-05-23T23:25:40.993Z,17.35
2023-05-23T23:28:15.540Z,33.33
2023-05-23T23:30:44.605Z,20.60
2023-05-23T23:33:14.930Z,22.95
2023-05-23T23:36:02.985Z,22.85
2023-05-23T23:38:31.099Z,19.63
2023-05-23T23:40:59.522Z,22.83
2023-05-23T23:43:30.765Z,16.80
2023-05-23T23:46:01.548Z,15.82
2023-05-23T23:48:30.401Z,14.05
2023-05-23T23:51:00.555Z,23.80
2023-05-23T23:53:30.082Z,23.90
2023-05-23T23:55:58.464Z,22.50
2023-05-23T23:58:26.597Z,20.23
